Airports Norway Bodø Airport

Bodø Airport (ENBO / BOO)

Facts about Bodø Airport

Name Bodø Airport
City Bodo
Country Norway
ICAO code ENBO
IATA code BOO
Elevation 12.8016 meters (42 feet)

Weather

METAR

Metar data retrieved Friday, 19 July 2024 at 23:25 UTC (1 minutes ago)

ENBO 192320Z AUTO 30004KT 9999 FEW007/// OVC010/// 14/13 Q1018

Live traffic

Navigraph Charts (account required)